Aviation Digital Data Service (ADDS)

Output produced by METARs form (1714 UTC 25 February 2018)
found at http://aviationweather.gov/adds/metars/
 
KILG 251651Z 08008KT 10SM -RA OVC006 09/08 A2995 RMK AO2 RAE08B33 CIG 005V010 SLP142 P0000 T00890078 $
KILG 251517Z 2515/2612 09007KT 5SM -RA BR SCT006 BKN016 
     TEMPO 2515/2518 4SM -RA BR BKN009 
     FM251800 24007KT P6SM VCSH OVC020 
     FM251900 25006KT P6SM BKN030 
     FM260000 28005KT P6SM BKN200 
     FM260400 31005KT P6SM BKN220